sensor_id;sensor_type;location;lat;lon;timestamp;P1;durP1;ratioP1;P2;durP2;ratioP2
71162;SDS011;58858;50.948;6.566;2024-03-02T00:06:09;5.72;;;1.02;;
71162;SDS011;58858;50.948;6.566;2024-03-02T00:16:11;1.63;;;0.80;;
71162;SDS011;58858;50.948;6.566;2024-03-02T00:26:12;1.42;;;0.80;;
71162;SDS011;58858;50.948;6.566;2024-03-02T00:36:15;2.20;;;1.30;;
71162;SDS011;58858;50.948;6.566;2024-03-02T00:46:17;3.70;;;1.02;;
71162;SDS011;58858;50.948;6.566;2024-03-02T00:56:19;2.08;;;0.80;;
71162;SDS011;58858;50.948;6.566;2024-03-02T01:06:20;2.40;;;1.25;;
71162;SDS011;58858;50.948;6.566;2024-03-02T01:16:23;1.42;;;0.77;;
71162;SDS011;58858;50.948;6.566;2024-03-02T01:26:24;1.27;;;0.80;;
71162;SDS011;58858;50.948;6.566;2024-03-02T01:36:25;1.45;;;1.35;;
71162;SDS011;58858;50.948;6.566;2024-03-02T01:46:26;2.42;;;1.52;;
71162;SDS011;58858;50.948;6.566;2024-03-02T01:56:27;1.63;;;0.70;;
71162;SDS011;58858;50.948;6.566;2024-03-02T02:06:28;1.95;;;0.90;;
71162;SDS011;58858;50.948;6.566;2024-03-02T02:16:29;1.13;;;0.60;;
71162;SDS011;58858;50.948;6.566;2024-03-02T02:26:30;1.90;;;1.05;;
71162;SDS011;58858;50.948;6.566;2024-03-02T02:36:35;1.90;;;0.80;;
71162;SDS011;58858;50.948;6.566;2024-03-02T02:46:38;2.38;;;0.70;;
71162;SDS011;58858;50.948;6.566;2024-03-02T02:56:40;3.35;;;1.50;;
71162;SDS011;58858;50.948;6.566;2024-03-02T03:06:41;2.85;;;0.80;;
71162;SDS011;58858;50.948;6.566;2024-03-02T03:16:42;2.90;;;1.00;;
71162;SDS011;58858;50.948;6.566;2024-03-02T03:26:44;0.90;;;0.70;;
71162;SDS011;58858;50.948;6.566;2024-03-02T03:36:45;0.90;;;0.68;;
71162;SDS011;58858;50.948;6.566;2024-03-02T03:46:46;1.27;;;0.63;;
71162;SDS011;58858;50.948;6.566;2024-03-02T03:56:47;3.00;;;0.95;;
71162;SDS011;58858;50.948;6.566;2024-03-02T04:06:48;1.20;;;0.70;;
71162;SDS011;58858;50.948;6.566;2024-03-02T04:16:49;3.47;;;0.93;;
71162;SDS011;58858;50.948;6.566;2024-03-02T04:26:51;3.33;;;1.00;;
71162;SDS011;58858;50.948;6.566;2024-03-02T04:36:53;1.75;;;0.77;;
71162;SDS011;58858;50.948;6.566;2024-03-02T04:46:54;1.05;;;0.70;;
71162;SDS011;58858;50.948;6.566;2024-03-02T04:56:55;1.80;;;0.77;;
71162;SDS011;58858;50.948;6.566;2024-03-02T05:06:56;3.53;;;1.40;;
71162;SDS011;58858;50.948;6.566;2024-03-02T05:16:58;1.85;;;0.98;;
71162;SDS011;58858;50.948;6.566;2024-03-02T05:26:59;2.85;;;0.80;;
71162;SDS011;58858;50.948;6.566;2024-03-02T05:37:01;1.13;;;0.63;;
71162;SDS011;58858;50.948;6.566;2024-03-02T05:47:02;3.33;;;1.10;;
71162;SDS011;58858;50.948;6.566;2024-03-02T05:57:04;3.70;;;1.02;;
71162;SDS011;58858;50.948;6.566;2024-03-02T06:07:17;1.98;;;1.00;;
71162;SDS011;58858;50.948;6.566;2024-03-02T06:17:18;2.00;;;0.70;;
71162;SDS011;58858;50.948;6.566;2024-03-02T06:27:19;1.80;;;1.02;;
71162;SDS011;58858;50.948;6.566;2024-03-02T06:37:20;4.15;;;0.80;;
71162;SDS011;58858;50.948;6.566;2024-03-02T06:47:22;3.75;;;0.95;;
71162;SDS011;58858;50.948;6.566;2024-03-02T06:57:23;0.95;;;0.60;;
71162;SDS011;58858;50.948;6.566;2024-03-02T07:07:25;2.03;;;0.60;;
71162;SDS011;58858;50.948;6.566;2024-03-02T07:17:26;1.42;;;0.75;;
71162;SDS011;58858;50.948;6.566;2024-03-02T07:27:27;4.30;;;1.60;;
71162;SDS011;58858;50.948;6.566;2024-03-02T07:37:28;2.63;;;0.40;;
71162;SDS011;58858;50.948;6.566;2024-03-02T07:47:29;2.28;;;0.50;;
71162;SDS011;58858;50.948;6.566;2024-03-02T07:57:30;1.95;;;0.40;;
71162;SDS011;58858;50.948;6.566;2024-03-02T08:07:32;0.82;;;0.50;;
71162;SDS011;58858;50.948;6.566;2024-03-02T08:17:33;4.15;;;1.10;;
71162;SDS011;58858;50.948;6.566;2024-03-02T08:27:34;1.80;;;0.85;;
71162;SDS011;58858;50.948;6.566;2024-03-02T08:37:35;1.60;;;0.95;;
71162;SDS011;58858;50.948;6.566;2024-03-02T08:47:38;1.65;;;0.60;;
71162;SDS011;58858;50.948;6.566;2024-03-02T08:57:39;1.65;;;0.90;;
71162;SDS011;58858;50.948;6.566;2024-03-02T09:07:42;2.10;;;1.15;;
71162;SDS011;58858;50.948;6.566;2024-03-02T09:17:43;3.45;;;0.70;;
71162;SDS011;58858;50.948;6.566;2024-03-02T09:27:44;1.83;;;0.77;;
71162;SDS011;58858;50.948;6.566;2024-03-02T09:37:45;2.78;;;0.93;;
71162;SDS011;58858;50.948;6.566;2024-03-02T09:47:47;1.80;;;0.70;;
71162;SDS011;58858;50.948;6.566;2024-03-02T09:57:48;1.83;;;0.70;;
71162;SDS011;58858;50.948;6.566;2024-03-02T10:08:01;3.38;;;0.70;;
71162;SDS011;58858;50.948;6.566;2024-03-02T10:18:12;2.30;;;0.80;;
71162;SDS011;58858;50.948;6.566;2024-03-02T10:28:16;3.28;;;1.15;;
71162;SDS011;58858;50.948;6.566;2024-03-02T10:38:18;1.77;;;1.15;;
71162;SDS011;58858;50.948;6.566;2024-03-02T10:48:21;3.55;;;0.82;;
71162;SDS011;58858;50.948;6.566;2024-03-02T10:58:22;4.15;;;0.57;;
71162;SDS011;58858;50.948;6.566;2024-03-02T11:08:25;2.85;;;0.85;;
71162;SDS011;58858;50.948;6.566;2024-03-02T11:18:27;1.25;;;0.40;;
71162;SDS011;58858;50.948;6.566;2024-03-02T11:28:35;2.30;;;0.70;;
71162;SDS011;58858;50.948;6.566;2024-03-02T11:38:39;0.80;;;0.60;;
71162;SDS011;58858;50.948;6.566;2024-03-02T11:48:44;3.20;;;0.50;;
71162;SDS011;58858;50.948;6.566;2024-03-02T11:58:47;1.35;;;0.32;;
71162;SDS011;58858;50.948;6.566;2024-03-02T12:08:52;3.50;;;1.25;;
71162;SDS011;58858;50.948;6.566;2024-03-02T12:18:54;1.53;;;0.80;;
71162;SDS011;58858;50.948;6.566;2024-03-02T12:28:55;0.93;;;0.60;;
71162;SDS011;58858;50.948;6.566;2024-03-02T12:38:56;2.72;;;0.50;;
71162;SDS011;58858;50.948;6.566;2024-03-02T12:49:05;2.72;;;1.00;;
71162;SDS011;58858;50.948;6.566;2024-03-02T12:59:09;2.83;;;0.90;;
71162;SDS011;58858;50.948;6.566;2024-03-02T13:09:11;5.80;;;1.92;;
71162;SDS011;58858;50.948;6.566;2024-03-02T13:19:15;4.90;;;2.70;;
71162;SDS011;58858;50.948;6.566;2024-03-02T13:29:19;2.58;;;0.80;;
71162;SDS011;58858;50.948;6.566;2024-03-02T13:39:21;1.95;;;0.70;;
71162;SDS011;58858;50.948;6.566;2024-03-02T13:49:22;2.85;;;0.60;;
71162;SDS011;58858;50.948;6.566;2024-03-02T13:59:23;0.82;;;0.50;;
71162;SDS011;58858;50.948;6.566;2024-03-02T14:09:25;1.17;;;0.80;;
71162;SDS011;58858;50.948;6.566;2024-03-02T14:19:27;2.92;;;0.40;;
71162;SDS011;58858;50.948;6.566;2024-03-02T14:29:28;17.48;;;11.18;;
71162;SDS011;58858;50.948;6.566;2024-03-02T14:39:30;14.75;;;9.00;;
71162;SDS011;58858;50.948;6.566;2024-03-02T14:49:35;23.03;;;14.07;;
71162;SDS011;58858;50.948;6.566;2024-03-02T14:59:38;10.75;;;5.57;;
71162;SDS011;58858;50.948;6.566;2024-03-02T15:09:39;1.40;;;1.13;;
71162;SDS011;58858;50.948;6.566;2024-03-02T15:19:40;1.33;;;1.08;;
71162;SDS011;58858;50.948;6.566;2024-03-02T15:29:42;7.82;;;3.97;;
71162;SDS011;58858;50.948;6.566;2024-03-02T15:39:44;3.20;;;2.08;;
71162;SDS011;58858;50.948;6.566;2024-03-02T15:49:45;1.70;;;1.00;;
71162;SDS011;58858;50.948;6.566;2024-03-02T15:59:46;2.10;;;0.88;;
71162;SDS011;58858;50.948;6.566;2024-03-02T16:09:48;1.30;;;1.13;;
71162;SDS011;58858;50.948;6.566;2024-03-02T16:19:49;2.25;;;1.13;;
71162;SDS011;58858;50.948;6.566;2024-03-02T16:29:51;2.72;;;1.50;;
71162;SDS011;58858;50.948;6.566;2024-03-02T16:39:52;4.75;;;2.53;;
71162;SDS011;58858;50.948;6.566;2024-03-02T16:49:53;2.72;;;1.55;;
71162;SDS011;58858;50.948;6.566;2024-03-02T16:59:54;2.50;;;1.45;;
71162;SDS011;58858;50.948;6.566;2024-03-02T17:09:55;4.35;;;2.50;;
71162;SDS011;58858;50.948;6.566;2024-03-02T17:19:59;3.55;;;2.03;;
71162;SDS011;58858;50.948;6.566;2024-03-02T17:30:02;4.78;;;2.55;;
71162;SDS011;58858;50.948;6.566;2024-03-02T17:40:03;4.47;;;2.75;;
71162;SDS011;58858;50.948;6.566;2024-03-02T17:50:06;4.70;;;2.58;;
71162;SDS011;58858;50.948;6.566;2024-03-02T18:00:08;2.80;;;2.00;;
71162;SDS011;58858;50.948;6.566;2024-03-02T18:10:14;2.80;;;2.10;;
71162;SDS011;58858;50.948;6.566;2024-03-02T18:20:15;2.47;;;1.67;;
71162;SDS011;58858;50.948;6.566;2024-03-02T18:30:20;2.33;;;2.00;;
71162;SDS011;58858;50.948;6.566;2024-03-02T18:40:21;4.22;;;2.10;;
71162;SDS011;58858;50.948;6.566;2024-03-02T18:50:22;3.30;;;1.75;;
71162;SDS011;58858;50.948;6.566;2024-03-02T19:00:23;3.10;;;2.10;;
71162;SDS011;58858;50.948;6.566;2024-03-02T19:10:24;2.45;;;1.38;;
71162;SDS011;58858;50.948;6.566;2024-03-02T19:20:25;2.55;;;1.50;;
71162;SDS011;58858;50.948;6.566;2024-03-02T19:30:27;1.75;;;1.48;;
71162;SDS011;58858;50.948;6.566;2024-03-02T19:40:29;2.10;;;1.05;;
71162;SDS011;58858;50.948;6.566;2024-03-02T19:50:30;2.10;;;1.30;;
71162;SDS011;58858;50.948;6.566;2024-03-02T20:00:31;1.73;;;1.05;;
71162;SDS011;58858;50.948;6.566;2024-03-02T20:10:33;2.55;;;1.30;;
71162;SDS011;58858;50.948;6.566;2024-03-02T20:20:34;2.67;;;1.50;;
71162;SDS011;58858;50.948;6.566;2024-03-02T20:30:35;2.05;;;1.50;;
71162;SDS011;58858;50.948;6.566;2024-03-02T20:40:36;1.83;;;1.65;;
71162;SDS011;58858;50.948;6.566;2024-03-02T20:50:37;3.45;;;1.60;;
71162;SDS011;58858;50.948;6.566;2024-03-02T21:00:38;2.03;;;1.63;;
71162;SDS011;58858;50.948;6.566;2024-03-02T21:10:39;2.78;;;1.85;;
71162;SDS011;58858;50.948;6.566;2024-03-02T21:20:41;2.85;;;2.35;;
71162;SDS011;58858;50.948;6.566;2024-03-02T21:30:42;4.07;;;2.30;;
71162;SDS011;58858;50.948;6.566;2024-03-02T21:40:43;3.83;;;2.25;;
71162;SDS011;58858;50.948;6.566;2024-03-02T21:50:44;3.95;;;2.25;;
71162;SDS011;58858;50.948;6.566;2024-03-02T22:00:45;3.83;;;2.47;;
71162;SDS011;58858;50.948;6.566;2024-03-02T22:10:46;4.22;;;2.88;;
71162;SDS011;58858;50.948;6.566;2024-03-02T22:20:47;5.22;;;3.10;;
71162;SDS011;58858;50.948;6.566;2024-03-02T22:30:48;4.57;;;2.72;;
71162;SDS011;58858;50.948;6.566;2024-03-02T22:40:49;3.95;;;2.45;;
71162;SDS011;58858;50.948;6.566;2024-03-02T22:50:51;4.20;;;2.80;;
71162;SDS011;58858;50.948;6.566;2024-03-02T23:00:52;3.60;;;2.30;;
71162;SDS011;58858;50.948;6.566;2024-03-02T23:10:58;3.70;;;2.78;;
71162;SDS011;58858;50.948;6.566;2024-03-02T23:20:59;3.50;;;2.63;;
71162;SDS011;58858;50.948;6.566;2024-03-02T23:31:00;3.33;;;2.47;;
71162;SDS011;58858;50.948;6.566;2024-03-02T23:41:01;5.43;;;3.08;;
71162;SDS011;58858;50.948;6.566;2024-03-02T23:51:10;3.03;;;2.42;;
